createdAt,value
2016-08-18T00:03:18.468Z,1001.12
2016-08-18T00:18:18.471Z,1000.97
2016-08-18T00:33:28.246Z,1000.79
2016-08-18T00:48:23.517Z,1000.79
2016-08-18T01:03:29.394Z,1000.6
2016-08-18T01:33:23.440Z,1000.36
2016-08-18T01:48:25.017Z,1000.21
2016-08-18T02:18:18.510Z,999.99
2016-08-18T02:33:18.503Z,999.85
2016-08-18T02:48:18.517Z,999.79
2016-08-18T03:03:20.082Z,999.76
2016-08-18T03:18:18.534Z,999.79
2016-08-18T03:33:21.851Z,999.58
2016-08-18T03:48:18.527Z,999.48
2016-08-18T04:03:25.122Z,999.34
2016-08-18T04:18:18.537Z,999.44
2016-08-18T04:33:24.760Z,999.38
2016-08-18T04:48:23.132Z,999.41
2016-08-18T05:03:23.578Z,999.37
2016-08-18T05:18:18.589Z,999.37
2016-08-18T05:33:18.545Z,999.22
2016-08-18T05:48:18.557Z,999.19
2016-08-18T06:03:18.558Z,999.16
2016-08-18T06:18:18.623Z,999.26
2016-08-18T06:33:18.582Z,999.16
2016-08-18T06:48:23.568Z,999.18
2016-08-18T07:03:18.590Z,999.05
2016-08-18T07:18:18.644Z,999
2016-08-18T07:33:18.596Z,999.1
2016-08-18T07:48:18.599Z,999.12
2016-08-18T08:03:30.737Z,999.14
2016-08-18T08:18:24.964Z,998.98
2016-08-18T08:33:24.813Z,998.92
2016-08-18T08:48:29.814Z,998.94
2016-08-18T09:03:38.771Z,998.85
2016-08-18T09:18:18.623Z,998.83
2016-08-18T09:33:18.704Z,998.75
2016-08-18T10:03:18.647Z,998.77
2016-08-18T10:18:18.664Z,998.45
2016-08-18T10:33:18.702Z,998.53
2016-08-18T10:48:18.661Z,998.47
2016-08-18T11:03:18.658Z,998.5
2016-08-18T11:18:23.707Z,998.42
2016-08-18T11:33:18.712Z,998.29
2016-08-18T11:48:18.682Z,998.34
2016-08-18T12:18:23.561Z,998.07
2016-08-18T12:33:18.759Z,997.98
2016-08-18T12:48:18.715Z,997.88
2016-08-18T13:03:19.531Z,997.82
2016-08-18T13:18:18.717Z,997.87
2016-08-18T13:33:18.757Z,997.7
2016-08-18T13:48:22.484Z,997.66
2016-08-18T14:03:18.715Z,997.69
2016-08-18T14:18:18.713Z,997.57
2016-08-18T14:33:45.772Z,997.44
2016-08-18T14:48:18.726Z,997.26
2016-08-18T15:03:22.946Z,997.35
2016-08-18T15:18:22.958Z,997.32
2016-08-18T15:33:22.628Z,997.24
2016-08-18T15:48:22.994Z,997.24
2016-08-18T16:03:25.054Z,997.2
2016-08-18T16:18:20.838Z,997.25
2016-08-18T16:33:18.743Z,997.19
2016-08-18T16:48:23.750Z,997.38
2016-08-18T17:03:18.792Z,997.68
2016-08-18T17:18:18.748Z,997.89
2016-08-18T17:33:18.753Z,997.76
2016-08-18T18:18:18.867Z,998.3
2016-08-18T18:33:23.061Z,998.46
2016-08-18T18:48:18.827Z,998.58
2016-08-18T19:18:23.621Z,999.05
2016-08-18T19:48:29.574Z,999.21
2016-08-18T20:03:18.865Z,999.3
2016-08-18T20:18:18.871Z,999.32
2016-08-18T20:33:18.908Z,999.29
2016-08-18T20:48:29.942Z,999.43
2016-08-18T21:03:29.566Z,999.61
2016-08-18T21:18:29.182Z,999.64
2016-08-18T21:33:27.026Z,999.54
2016-08-18T21:48:18.870Z,999.57
2016-08-18T22:03:23.495Z,999.54
2016-08-18T22:18:20.980Z,999.54
2016-08-18T22:33:23.817Z,999.55
2016-08-18T22:48:18.930Z,999.57
2016-08-18T23:03:18.871Z,999.48
2016-08-18T23:18:18.879Z,999.52
2016-08-18T23:33:23.490Z,999.34
2016-08-18T23:48:23.977Z,999.48
